createdAt,value
2023-01-29T00:00:10.467Z,33.13
2023-01-29T00:02:40.117Z,34.87
2023-01-29T00:05:25.993Z,35.35
2023-01-29T00:07:56.012Z,34.08
2023-01-29T00:10:25.288Z,35.15
2023-01-29T00:12:53.043Z,34.58
2023-01-29T00:15:20.863Z,34.30
2023-01-29T00:17:48.897Z,33.80
2023-01-29T00:20:17.410Z,32.15
2023-01-29T00:22:45.232Z,34.97
2023-01-29T00:25:13.117Z,33.72
2023-01-29T00:27:40.669Z,32.80
2023-01-29T00:30:16.491Z,29.67
2023-01-29T00:32:45.575Z,38.13
2023-01-29T00:35:13.141Z,31.10
2023-01-29T00:37:40.659Z,34.28
2023-01-29T00:40:10.137Z,33.63
2023-01-29T00:42:56.440Z,34.65
2023-01-29T00:45:24.235Z,31.45
2023-01-29T00:47:51.790Z,32.95
2023-01-29T00:50:19.989Z,34.97
2023-01-29T00:52:49.737Z,33.50
2023-01-29T00:55:23.401Z,35.38
2023-01-29T00:57:51.771Z,30.48
2023-01-29T01:00:19.795Z,33.10
2023-01-29T01:03:05.808Z,33.35
2023-01-29T01:05:34.315Z,34.03
2023-01-29T01:08:02.083Z,32.92
2023-01-29T01:10:32.264Z,35.85
2023-01-29T01:13:02.654Z,33.70
2023-01-29T01:15:34.379Z,31.25
2023-01-29T01:18:03.029Z,32.97
2023-01-29T01:20:33.485Z,32.17
2023-01-29T01:23:01.123Z,32.45
2023-01-29T01:25:29.102Z,30.75
2023-01-29T01:30:26.455Z,36.47
2023-01-29T01:32:54.321Z,33.10
2023-01-29T01:35:21.896Z,36.72
2023-01-29T01:37:49.943Z,35.05
2023-01-29T01:40:22.636Z,31.95
2023-01-29T01:42:56.304Z,31.10
2023-01-29T01:45:37.085Z,28.60
2023-01-29T01:48:07.876Z,32.45
2023-01-29T01:50:56.787Z,30.15
2023-01-29T01:53:34.553Z,29.30
2023-01-29T01:56:04.597Z,29.27
2023-01-29T01:58:36.637Z,35.22
2023-01-29T02:01:06.696Z,34.58
2023-01-29T02:04:01.274Z,29.17
2023-01-29T02:06:48.226Z,28.87
2023-01-29T02:09:35.687Z,32.20
2023-01-29T02:12:07.447Z,25.27
2023-01-29T02:14:38.998Z,27.87
2023-01-29T02:17:18.188Z,31.73
2023-01-29T02:20:20.798Z,33.22
2023-01-29T02:22:54.040Z,28.33
2023-01-29T02:25:32.922Z,28.67
2023-01-29T02:28:25.898Z,26.15
2023-01-29T02:31:01.908Z,26.95
2023-01-29T02:33:32.759Z,27.55
2023-01-29T02:36:18.567Z,26.63
2023-01-29T02:39:00.833Z,23.80
2023-01-29T02:41:41.943Z,26.73
2023-01-29T02:44:27.957Z,25.90
2023-01-29T02:47:02.880Z,26.10
2023-01-29T02:49:38.015Z,26.57
2023-01-29T02:52:21.559Z,23.42
2023-01-29T02:55:10.464Z,23.08
2023-01-29T02:57:42.121Z,27.08
2023-01-29T03:00:13.365Z,25.88
2023-01-29T03:02:41.374Z,24.23
2023-01-29T03:05:12.943Z,24.42
2023-01-29T03:07:46.399Z,25.73
2023-01-29T03:10:28.164Z,27.55
2023-01-29T03:13:20.144Z,25.08
2023-01-29T03:16:01.420Z,24.33
2023-01-29T03:18:33.437Z,23.95
2023-01-29T03:21:26.769Z,21.12
2023-01-29T03:24:14.212Z,25.25
2023-01-29T03:27:02.328Z,25.00
2023-01-29T03:29:51.005Z,23.13
2023-01-29T03:32:20.052Z,23.17
2023-01-29T03:34:52.048Z,19.58
2023-01-29T03:37:29.335Z,20.45
2023-01-29T03:39:57.797Z,21.67
2023-01-29T03:42:44.917Z,21.73
2023-01-29T03:45:15.766Z,22.55
2023-01-29T03:47:47.244Z,25.85
2023-01-29T03:50:16.047Z,22.58
2023-01-29T03:52:52.146Z,19.85
2023-01-29T03:55:25.108Z,24.77
2023-01-29T03:58:21.573Z,22.77
2023-01-29T04:01:19.747Z,21.70
2023-01-29T04:04:02.020Z,23.75
2023-01-29T04:06:35.440Z,20.05
2023-01-29T04:09:14.750Z,22.93
2023-01-29T04:11:46.516Z,19.92
2023-01-29T04:14:14.720Z,21.83
2023-01-29T04:16:47.746Z,19.55
2023-01-29T04:19:16.539Z,22.10
2023-01-29T04:21:45.470Z,23.97
2023-01-29T04:24:14.191Z,26.17
2023-01-29T04:26:54.132Z,18.75
2023-01-29T04:29:33.287Z,21.42
2023-01-29T04:32:02.712Z,24.42
2023-01-29T04:34:36.578Z,22.03
2023-01-29T04:37:17.601Z,21.92
2023-01-29T04:39:48.628Z,21.65
2023-01-29T04:42:31.105Z,21.55
2023-01-29T04:45:08.700Z,23.38
2023-01-29T04:48:25.967Z,23.07
2023-01-29T04:50:58.187Z,23.58
2023-01-29T04:53:45.211Z,22.10
2023-01-29T04:56:18.645Z,23.00
2023-01-29T04:58:57.704Z,22.90
2023-01-29T05:01:29.808Z,24.47
2023-01-29T05:03:58.498Z,24.90
2023-01-29T05:06:26.701Z,23.10
2023-01-29T05:08:55.565Z,20.73
2023-01-29T05:11:24.896Z,22.52
2023-01-29T05:13:52.568Z,23.70
2023-01-29T05:16:24.402Z,19.85
2023-01-29T05:18:52.360Z,17.27
2023-01-29T05:21:20.450Z,22.95
2023-01-29T05:24:06.616Z,18.05
2023-01-29T05:26:53.435Z,17.40
2023-01-29T05:29:21.663Z,18.17
2023-01-29T05:31:49.607Z,18.87
2023-01-29T05:34:17.507Z,18.35
2023-01-29T05:36:45.123Z,17.45
2023-01-29T05:39:13.072Z,22.30
2023-01-29T05:41:40.706Z,19.12
2023-01-29T05:44:10.533Z,18.77
2023-01-29T05:46:38.789Z,18.42
2023-01-29T05:49:06.593Z,18.48
2023-01-29T05:51:34.216Z,17.80
2023-01-29T05:54:02.085Z,17.33
2023-01-29T05:56:29.604Z,17.35
2023-01-29T05:58:57.217Z,18.75
2023-01-29T06:01:26.280Z,16.70
2023-01-29T06:03:54.848Z,18.97
2023-01-29T06:06:22.367Z,16.55
2023-01-29T06:08:50.157Z,19.23
2023-01-29T06:11:21.713Z,14.87
2023-01-29T06:13:50.421Z,16.60
2023-01-29T06:16:18.346Z,15.27
2023-01-29T06:18:46.067Z,16.42
2023-01-29T06:21:14.139Z,19.83
2023-01-29T06:23:42.009Z,15.23
2023-01-29T06:26:12.727Z,15.35
2023-01-29T06:28:40.874Z,18.47
2023-01-29T06:31:26.531Z,16.48
2023-01-29T06:33:56.621Z,16.60
2023-01-29T06:36:24.439Z,15.18
2023-01-29T06:38:52.249Z,19.40
2023-01-29T06:41:25.233Z,15.53
2023-01-29T06:43:53.154Z,16.23
2023-01-29T06:46:20.725Z,16.37
2023-01-29T06:48:48.245Z,15.15
2023-01-29T06:51:16.269Z,15.00
2023-01-29T06:53:46.076Z,14.33
2023-01-29T06:56:14.229Z,13.65
2023-01-29T06:58:43.579Z,13.60
2023-01-29T07:01:17.565Z,14.07
2023-01-29T07:03:51.148Z,13.05
2023-01-29T07:06:19.195Z,16.63
2023-01-29T07:08:46.940Z,15.35
2023-01-29T07:11:15.042Z,15.77
2023-01-29T07:13:42.695Z,14.50
2023-01-29T07:16:10.289Z,15.88
2023-01-29T07:18:38.240Z,14.07
2023-01-29T07:21:07.293Z,14.30
2023-01-29T07:23:35.443Z,13.62
2023-01-29T07:26:06.719Z,13.68
2023-01-29T07:28:38.216Z,15.13
2023-01-29T07:31:07.235Z,16.10
2023-01-29T07:33:35.307Z,16.85
2023-01-29T07:36:02.966Z,14.20
2023-01-29T07:38:31.175Z,14.70
2023-01-29T07:40:58.718Z,15.30
2023-01-29T07:43:26.381Z,14.27
2023-01-29T07:45:54.713Z,15.07
2023-01-29T07:48:22.503Z,13.45
2023-01-29T07:50:56.544Z,12.93
2023-01-29T07:53:24.842Z,13.88
2023-01-29T07:55:52.563Z,14.33
2023-01-29T07:58:20.255Z,13.10
2023-01-29T08:00:48.276Z,13.68
2023-01-29T08:03:18.359Z,13.82
2023-01-29T08:08:55.751Z,14.43
2023-01-29T08:11:23.643Z,11.45
2023-01-29T08:13:51.853Z,13.02
2023-01-29T08:16:19.421Z,12.13
2023-01-29T08:18:48.556Z,12.95
2023-01-29T08:21:16.370Z,12.70
2023-01-29T08:23:44.005Z,12.88
2023-01-29T08:26:11.891Z,10.38
2023-01-29T08:28:39.506Z,11.65
2023-01-29T08:31:14.229Z,12.93
2023-01-29T08:33:42.307Z,10.77
2023-01-29T08:36:10.272Z,12.90
2023-01-29T08:38:37.955Z,13.52
2023-01-29T08:41:06.506Z,10.23
2023-01-29T08:43:36.994Z,11.30
2023-01-29T08:46:05.976Z,9.97
2023-01-29T08:48:34.501Z,11.18
2023-01-29T08:51:03.070Z,11.75
2023-01-29T08:53:31.868Z,11.88
2023-01-29T08:55:59.759Z,12.57
2023-01-29T08:58:27.333Z,12.57
2023-01-29T09:00:54.914Z,11.32
2023-01-29T09:03:22.923Z,13.02
2023-01-29T09:05:50.576Z,11.73
2023-01-29T09:08:18.227Z,12.73
2023-01-29T09:10:46.287Z,11.40
2023-01-29T09:13:13.863Z,11.12
2023-01-29T09:15:41.519Z,11.25
2023-01-29T09:18:09.423Z,11.43
2023-01-29T09:20:38.269Z,9.57
2023-01-29T09:23:10.023Z,8.67
2023-01-29T09:25:38.362Z,11.07
2023-01-29T09:28:06.335Z,9.75
2023-01-29T09:30:37.678Z,10.80
2023-01-29T09:33:06.596Z,11.20
2023-01-29T09:35:34.550Z,11.83
2023-01-29T09:38:02.184Z,12.30
2023-01-29T09:40:45.097Z,11.20
2023-01-29T09:43:19.194Z,10.90
2023-01-29T09:45:54.188Z,10.88
2023-01-29T09:48:24.115Z,11.03
2023-01-29T09:50:55.142Z,11.93
2023-01-29T09:53:46.147Z,10.20
2023-01-29T09:56:20.613Z,10.25
2023-01-29T09:58:48.574Z,9.85
2023-01-29T10:01:32.001Z,11.43
2023-01-29T10:03:59.828Z,10.00
2023-01-29T10:06:58.678Z,9.32
2023-01-29T10:10:04.516Z,12.02
2023-01-29T10:12:37.968Z,11.93
2023-01-29T10:15:21.110Z,12.87
2023-01-29T10:18:01.711Z,11.05
2023-01-29T10:20:44.819Z,10.32
2023-01-29T10:23:31.913Z,13.98
2023-01-29T10:26:01.334Z,10.18
2023-01-29T10:28:31.753Z,11.77
2023-01-29T10:31:04.829Z,10.85
2023-01-29T10:33:49.196Z,7.85
2023-01-29T10:36:26.821Z,11.35
2023-01-29T10:38:56.062Z,8.90
2023-01-29T10:41:32.673Z,10.03
2023-01-29T10:44:18.931Z,10.70
2023-01-29T10:46:50.625Z,10.30
2023-01-29T10:49:51.616Z,11.00
2023-01-29T10:52:41.377Z,11.43
2023-01-29T10:55:09.279Z,12.57
2023-01-29T10:57:45.878Z,13.05
2023-01-29T11:00:30.505Z,13.15
2023-01-29T11:03:38.605Z,10.35
2023-01-29T11:06:16.904Z,10.52
2023-01-29T11:09:08.288Z,11.13
2023-01-29T11:12:01.033Z,8.35
2023-01-29T11:14:32.028Z,11.90
2023-01-29T11:16:59.882Z,9.77
2023-01-29T11:19:57.314Z,10.43
2023-01-29T11:22:27.074Z,11.27
2023-01-29T11:25:18.978Z,13.80
2023-01-29T11:27:52.728Z,12.65
2023-01-29T11:30:29.355Z,10.40
2023-01-29T11:33:12.770Z,13.68
2023-01-29T11:35:40.341Z,10.03
2023-01-29T11:38:18.518Z,13.23
2023-01-29T11:40:46.477Z,10.07
2023-01-29T11:43:29.187Z,9.30
2023-01-29T11:46:00.677Z,9.77
2023-01-29T11:48:48.908Z,9.87
2023-01-29T11:51:25.718Z,7.72
2023-01-29T11:53:57.884Z,8.40
2023-01-29T11:56:29.573Z,10.00
2023-01-29T11:58:58.267Z,10.68
2023-01-29T12:01:43.795Z,9.80
2023-01-29T12:04:18.804Z,11.48
2023-01-29T12:06:49.033Z,14.43
2023-01-29T12:09:20.317Z,8.77
2023-01-29T12:11:48.235Z,9.75
2023-01-29T12:14:36.030Z,7.43
2023-01-29T12:17:15.260Z,9.00
2023-01-29T12:19:56.572Z,8.70
2023-01-29T12:22:57.197Z,10.75
2023-01-29T12:25:34.112Z,10.50
2023-01-29T12:28:19.164Z,9.43
2023-01-29T12:31:05.740Z,8.85
2023-01-29T12:33:49.071Z,7.97
2023-01-29T12:36:26.039Z,9.57
2023-01-29T12:38:54.236Z,10.10
2023-01-29T12:41:41.645Z,9.37
2023-01-29T12:44:43.617Z,11.73
2023-01-29T12:47:20.259Z,9.98
2023-01-29T12:49:53.765Z,8.18
2023-01-29T12:52:34.496Z,12.32
2023-01-29T12:55:21.771Z,10.00
2023-01-29T12:57:59.011Z,8.07
2023-01-29T13:00:29.582Z,9.07
2023-01-29T13:03:25.449Z,8.82
2023-01-29T13:05:57.071Z,10.85
2023-01-29T13:08:32.023Z,9.83
2023-01-29T13:11:02.376Z,8.52
2023-01-29T13:13:53.965Z,9.23
2023-01-29T13:16:26.540Z,10.10
2023-01-29T13:19:00.009Z,9.63
2023-01-29T13:21:35.437Z,8.63
2023-01-29T13:24:05.263Z,9.75
2023-01-29T13:26:34.510Z,10.18
2023-01-29T13:29:02.993Z,9.02
2023-01-29T13:31:33.931Z,9.20
2023-01-29T13:34:07.808Z,8.53
2023-01-29T13:36:37.356Z,9.15
2023-01-29T13:39:07.592Z,9.80
2023-01-29T13:41:39.324Z,9.90
2023-01-29T13:44:18.726Z,8.80
2023-01-29T13:46:53.887Z,7.80
2023-01-29T13:49:31.985Z,10.00
2023-01-29T13:52:33.080Z,10.27
2023-01-29T13:55:04.194Z,9.90
2023-01-29T13:57:55.862Z,10.10
2023-01-29T14:00:30.721Z,11.53
2023-01-29T14:03:01.727Z,10.57
2023-01-29T14:05:32.107Z,9.93
2023-01-29T14:08:05.199Z,10.75
2023-01-29T14:10:34.885Z,8.95
2023-01-29T14:13:18.228Z,10.90
2023-01-29T14:15:58.994Z,10.90
2023-01-29T14:18:28.239Z,10.93
2023-01-29T14:20:59.105Z,12.07
2023-01-29T14:23:33.156Z,11.07
2023-01-29T14:26:04.287Z,12.73
2023-01-29T14:28:33.879Z,10.20
2023-01-29T14:31:03.164Z,10.45
2023-01-29T14:33:35.538Z,10.23
2023-01-29T14:36:11.586Z,11.45
2023-01-29T14:38:40.622Z,10.80
2023-01-29T14:41:29.833Z,12.52
2023-01-29T14:44:35.342Z,11.95
2023-01-29T14:47:04.781Z,13.30
2023-01-29T14:49:52.656Z,11.15
2023-01-29T14:52:25.863Z,13.37
2023-01-29T14:54:54.345Z,12.20
2023-01-29T14:57:23.082Z,14.30
2023-01-29T14:59:59.848Z,11.35
2023-01-29T15:02:59.882Z,11.48
2023-01-29T15:05:36.472Z,14.47
2023-01-29T15:08:13.416Z,12.88
2023-01-29T15:10:44.364Z,11.63
2023-01-29T15:13:48.484Z,13.65
2023-01-29T15:16:20.364Z,12.37
2023-01-29T15:18:49.138Z,14.03
2023-01-29T15:21:18.341Z,13.15
2023-01-29T15:23:49.820Z,13.60
2023-01-29T15:26:20.002Z,12.48
2023-01-29T15:29:04.193Z,14.10
2023-01-29T15:31:34.577Z,13.47
2023-01-29T15:34:05.879Z,13.90
2023-01-29T15:36:33.996Z,14.80
2023-01-29T15:39:22.622Z,16.65
2023-01-29T15:41:52.226Z,13.60
2023-01-29T15:44:23.157Z,14.70
2023-01-29T15:46:59.642Z,12.60
2023-01-29T15:49:32.847Z,13.05
2023-01-29T15:52:28.190Z,14.43
2023-01-29T15:54:57.086Z,11.68
2023-01-29T15:57:29.761Z,13.20
2023-01-29T15:59:58.789Z,13.85
2023-01-29T16:02:38.415Z,12.68
2023-01-29T16:05:25.710Z,14.43
2023-01-29T16:07:54.572Z,14.60
2023-01-29T16:10:26.879Z,15.87
2023-01-29T16:12:55.019Z,14.45
2023-01-29T16:15:37.947Z,16.12
2023-01-29T16:18:21.228Z,16.65
2023-01-29T16:20:56.701Z,16.45
2023-01-29T16:23:29.006Z,12.27
2023-01-29T16:26:02.278Z,14.98
2023-01-29T16:28:30.365Z,13.75
2023-01-29T16:31:01.328Z,15.40
2023-01-29T16:33:36.128Z,14.25
2023-01-29T16:36:12.661Z,14.90
2023-01-29T16:38:44.281Z,17.40
2023-01-29T16:41:28.379Z,14.70
2023-01-29T16:44:02.263Z,14.30
2023-01-29T16:46:38.405Z,16.95
2023-01-29T16:49:31.415Z,14.63
2023-01-29T16:52:24.087Z,16.73
2023-01-29T16:54:52.720Z,14.77
2023-01-29T16:57:26.275Z,12.68
2023-01-29T16:59:56.080Z,14.48
2023-01-29T17:02:37.846Z,13.53
2023-01-29T17:05:15.367Z,14.57
2023-01-29T17:07:45.167Z,15.63
2023-01-29T17:10:18.219Z,16.80
2023-01-29T17:13:00.253Z,16.42
2023-01-29T17:15:33.232Z,16.37
2023-01-29T17:18:02.227Z,16.20
2023-01-29T17:20:31.299Z,15.68
2023-01-29T17:22:59.061Z,16.15
2023-01-29T17:25:28.096Z,16.25
2023-01-29T17:27:56.098Z,18.83
2023-01-29T17:30:26.511Z,18.05
2023-01-29T17:32:54.448Z,16.80
2023-01-29T17:35:23.136Z,15.98
2023-01-29T17:37:51.070Z,17.00
2023-01-29T17:40:28.823Z,16.20
2023-01-29T17:42:56.925Z,17.85
2023-01-29T17:45:25.255Z,17.80
2023-01-29T17:47:53.372Z,18.17
2023-01-29T17:50:26.833Z,19.55
2023-01-29T17:52:54.944Z,15.27
2023-01-29T17:55:22.579Z,21.67
2023-01-29T17:57:50.556Z,17.25
2023-01-29T18:00:23.616Z,14.68
2023-01-29T18:02:52.760Z,18.20
2023-01-29T18:05:21.095Z,17.27
2023-01-29T18:07:51.701Z,18.55
2023-01-29T18:10:21.163Z,15.40
2023-01-29T18:12:49.068Z,16.60
2023-01-29T18:15:17.194Z,16.02
2023-01-29T18:17:46.213Z,17.90
2023-01-29T18:20:20.532Z,17.60
2023-01-29T18:22:48.827Z,20.90
2023-01-29T18:25:17.422Z,17.90
2023-01-29T18:27:46.234Z,16.20
2023-01-29T18:30:15.119Z,19.63
2023-01-29T18:32:42.840Z,16.85
2023-01-29T18:35:10.716Z,14.68
2023-01-29T18:37:39.016Z,16.20
2023-01-29T18:40:07.536Z,17.90
2023-01-29T18:42:36.107Z,15.90
2023-01-29T18:45:07.317Z,17.02
2023-01-29T18:47:35.616Z,14.75
2023-01-29T18:50:03.608Z,15.13
2023-01-29T18:52:31.953Z,15.57
2023-01-29T18:55:01.100Z,15.83
2023-01-29T18:58:28.852Z,15.27
2023-01-29T19:00:18.058Z,14.93
2023-01-29T19:02:45.850Z,18.05
2023-01-29T19:05:13.737Z,16.75
2023-01-29T19:07:42.241Z,16.33
2023-01-29T19:10:12.740Z,16.12
2023-01-29T19:12:42.341Z,14.57
2023-01-29T19:15:11.693Z,16.25
2023-01-29T19:17:40.259Z,15.63
2023-01-29T19:20:11.003Z,15.70
2023-01-29T19:22:40.599Z,17.00
2023-01-29T19:25:09.225Z,15.73
2023-01-29T19:27:36.872Z,15.48
2023-01-29T19:30:08.443Z,16.10
2023-01-29T19:32:36.349Z,18.07
2023-01-29T19:35:04.941Z,18.67
2023-01-29T19:37:32.799Z,31.92
2023-01-29T19:40:00.703Z,27.77
2023-01-29T19:42:28.868Z,20.30
2023-01-29T19:44:56.512Z,21.40
2023-01-29T19:47:24.624Z,19.75
2023-01-29T19:49:52.767Z,18.42
2023-01-29T19:52:50.273Z,20.08
2023-01-29T19:55:21.258Z,16.12
2023-01-29T19:57:52.347Z,16.67
2023-01-29T20:00:21.560Z,16.52
2023-01-29T20:02:50.174Z,18.27
2023-01-29T20:05:18.690Z,19.80
2023-01-29T20:07:46.875Z,20.08
2023-01-29T20:10:17.549Z,18.10
2023-01-29T20:12:46.538Z,20.33
2023-01-29T20:15:14.927Z,19.20
2023-01-29T20:17:43.889Z,17.92
2023-01-29T20:20:12.533Z,19.48
2023-01-29T20:22:40.689Z,19.40
2023-01-29T20:25:08.982Z,19.02
2023-01-29T20:27:36.827Z,19.25
2023-01-29T20:30:06.536Z,20.12
2023-01-29T20:32:35.346Z,17.08
2023-01-29T20:35:03.374Z,19.53
2023-01-29T20:37:31.596Z,18.10
2023-01-29T20:39:59.697Z,16.62
2023-01-29T20:42:28.120Z,14.87
2023-01-29T20:44:56.190Z,17.23
2023-01-29T20:47:24.282Z,18.17
2023-01-29T20:49:52.757Z,17.45
2023-01-29T20:52:21.073Z,17.45
2023-01-29T20:54:48.878Z,15.20
2023-01-29T20:57:18.338Z,16.60
2023-01-29T20:59:46.455Z,18.83
2023-01-29T21:02:14.272Z,17.08
2023-01-29T21:04:44.149Z,19.73
2023-01-29T21:07:12.562Z,20.40
2023-01-29T21:09:40.421Z,18.90
2023-01-29T21:12:08.596Z,19.20
2023-01-29T21:14:36.565Z,18.23
2023-01-29T21:17:04.978Z,19.87
2023-01-29T21:19:33.288Z,16.27
2023-01-29T21:22:01.382Z,19.77
2023-01-29T21:24:29.197Z,18.53
2023-01-29T21:26:57.004Z,16.20
2023-01-29T21:29:25.118Z,20.70
2023-01-29T21:31:52.807Z,18.55
2023-01-29T21:34:20.453Z,19.02
2023-01-29T21:36:48.303Z,18.10
2023-01-29T21:39:21.037Z,16.50
2023-01-29T21:42:08.894Z,15.80
2023-01-29T21:44:36.941Z,20.00
2023-01-29T21:47:12.307Z,18.17
2023-01-29T21:49:41.445Z,18.43
2023-01-29T21:52:11.454Z,15.70
2023-01-29T21:54:40.121Z,18.80
2023-01-29T21:57:12.280Z,16.48
2023-01-29T21:59:40.215Z,17.98
2023-01-29T22:02:14.714Z,15.97
2023-01-29T22:04:43.082Z,17.37
2023-01-29T22:07:11.293Z,16.10
2023-01-29T22:09:39.452Z,17.23
2023-01-29T22:12:08.257Z,16.92
2023-01-29T22:14:36.016Z,22.63
2023-01-29T22:17:04.046Z,18.62
2023-01-29T22:19:32.189Z,17.70
2023-01-29T22:22:00.132Z,18.40
2023-01-29T22:24:27.738Z,18.12
2023-01-29T22:26:55.613Z,22.50
2023-01-29T22:29:23.255Z,18.15
2023-01-29T22:31:50.871Z,19.15
2023-01-29T22:34:18.748Z,19.45
2023-01-29T22:36:46.245Z,23.25
2023-01-29T22:39:13.917Z,18.10
2023-01-29T22:41:41.695Z,18.80
2023-01-29T22:44:09.860Z,19.92
2023-01-29T22:46:37.473Z,17.55
2023-01-29T22:49:05.490Z,19.60
2023-01-29T22:51:33.334Z,18.40
2023-01-29T22:54:01.447Z,18.27
2023-01-29T22:56:32.041Z,18.33
2023-01-29T22:59:00.705Z,19.42
2023-01-29T23:01:30.054Z,17.30
2023-01-29T23:03:58.418Z,18.83
2023-01-29T23:06:26.327Z,23.02
2023-01-29T23:08:53.934Z,20.65
2023-01-29T23:11:23.563Z,18.52
2023-01-29T23:13:53.311Z,23.80
2023-01-29T23:16:26.264Z,21.97
2023-01-29T23:18:56.535Z,22.92
2023-01-29T23:21:25.303Z,23.30
2023-01-29T23:23:55.303Z,21.45
2023-01-29T23:26:41.729Z,20.05
2023-01-29T23:29:10.031Z,17.20
2023-01-29T23:31:38.331Z,21.77
2023-01-29T23:34:06.100Z,21.75
2023-01-29T23:36:33.626Z,18.62
2023-01-29T23:39:01.436Z,21.02
2023-01-29T23:41:28.988Z,18.73
2023-01-29T23:43:56.613Z,18.45
2023-01-29T23:46:24.462Z,19.08
2023-01-29T23:48:52.027Z,18.08
2023-01-29T23:51:19.638Z,19.40
2023-01-29T23:53:47.510Z,20.57
2023-01-29T23:56:15.101Z,20.58
2023-01-29T23:58:42.842Z,16.17
